createdAt,value
2019-05-23T00:00:55.546Z,98070.19
2019-05-23T00:03:46.732Z,98071.14
2019-05-23T00:06:18.936Z,98074.71
2019-05-23T00:08:48.519Z,98078.05
2019-05-23T00:11:35.814Z,98075.72
2019-05-23T00:14:10.232Z,98072.49
2019-05-23T00:16:41.004Z,98074.82
2019-05-23T00:19:14.229Z,98070.88
2019-05-23T00:21:44.780Z,98075.02
2019-05-23T00:24:15.187Z,98069.75
2019-05-23T00:26:45.712Z,98073.30
2019-05-23T00:29:15.343Z,98071.81
2019-05-23T00:31:45.760Z,98066.38
2019-05-23T00:34:17.815Z,98069.38
2019-05-23T00:36:48.227Z,98068.32
2019-05-23T00:39:19.151Z,98071.66
2019-05-23T00:41:49.863Z,98070.38
2019-05-23T00:44:18.343Z,98073.05
2019-05-23T00:46:49.152Z,98075.66
2019-05-23T00:49:18.505Z,98074.62
2019-05-23T00:51:49.162Z,98078.77
2019-05-23T00:54:20.577Z,98075.88
2019-05-23T00:56:52.436Z,98080.12
2019-05-23T00:59:27.117Z,98080.47
2019-05-23T01:01:56.568Z,98073.06
2019-05-23T01:04:27.960Z,98078.12
2019-05-23T01:06:59.058Z,98077.99
2019-05-23T01:09:31.336Z,98077.17
2019-05-23T01:12:01.011Z,98076.73
2019-05-23T01:14:32.241Z,98076.70
2019-05-23T01:17:02.270Z,98076.80
2019-05-23T01:19:32.144Z,98080.59
2019-05-23T01:22:05.680Z,98084.52
2019-05-23T01:24:39.370Z,98084.05
2019-05-23T01:27:09.014Z,98082.41
2019-05-23T01:29:42.001Z,98091.38
2019-05-23T01:32:25.082Z,98088.36
2019-05-23T01:34:55.133Z,98090.77
2019-05-23T01:37:26.240Z,98089.48
2019-05-23T01:39:57.864Z,98083.75
2019-05-23T01:42:29.388Z,98091.86
2019-05-23T01:45:05.215Z,98092.63
2019-05-23T01:47:38.229Z,98087.33
2019-05-23T01:50:10.652Z,98090.30
2019-05-23T01:52:42.908Z,98086.02
2019-05-23T01:55:15.084Z,98093.69
2019-05-23T01:57:49.074Z,98095.75
2019-05-23T02:00:19.248Z,98102.39
2019-05-23T02:02:50.868Z,98095.50
2019-05-23T02:05:21.824Z,98096.70
2019-05-23T02:07:55.775Z,98100.15
2019-05-23T02:10:27.513Z,98094.16
2019-05-23T02:12:58.056Z,98098.04
2019-05-23T02:15:28.267Z,98099.81
2019-05-23T02:17:59.089Z,98102.30
2019-05-23T02:20:30.117Z,98095.14
2019-05-23T02:23:01.342Z,98093.97
2019-05-23T02:25:31.646Z,98098.11
2019-05-23T02:28:01.080Z,98103.82
2019-05-23T02:30:34.694Z,98105.67
2019-05-23T02:33:03.552Z,98106.23
2019-05-23T02:35:33.892Z,98104.24
2019-05-23T02:38:15.582Z,98104.02
2019-05-23T02:40:56.857Z,98107.34
2019-05-23T02:43:27.925Z,98113.75
2019-05-23T02:46:00.055Z,98121.40
2019-05-23T02:48:39.456Z,98115.20
2019-05-23T02:51:28.365Z,98114.37
2019-05-23T02:54:01.689Z,98109.42
2019-05-23T02:56:37.087Z,98111.36
2019-05-23T02:59:30.480Z,98113.55
2019-05-23T03:02:36.781Z,98116.64
2019-05-23T03:05:10.730Z,98112.84
2019-05-23T03:07:42.424Z,98110.73
2019-05-23T03:10:13.603Z,98114.64
2019-05-23T03:12:45.160Z,98108.66
2019-05-23T03:15:16.876Z,98103.40
2019-05-23T03:17:49.507Z,98099.72
2019-05-23T03:20:20.458Z,98102.47
2019-05-23T03:22:53.112Z,98104.44
2019-05-23T03:25:40.957Z,98105.08
2019-05-23T03:28:14.934Z,98105.90
2019-05-23T03:30:46.060Z,98101.55
2019-05-23T03:33:18.758Z,98106.32
2019-05-23T03:35:52.514Z,98107.00
2019-05-23T03:38:22.531Z,98109.27
2019-05-23T03:40:52.390Z,98106.44
2019-05-23T03:43:21.230Z,98107.00
2019-05-23T03:45:57.658Z,98109.08
2019-05-23T03:48:29.749Z,98102.25
2019-05-23T03:51:02.646Z,98096.52
2019-05-23T03:53:33.536Z,98102.39
2019-05-23T03:56:04.935Z,98101.15
2019-05-23T03:58:36.216Z,98092.38
2019-05-23T04:01:08.491Z,98098.58
2019-05-23T04:03:40.077Z,98102.30
2019-05-23T04:06:09.939Z,98096.35
2019-05-23T04:08:39.726Z,98099.24
2019-05-23T04:11:09.303Z,98096.15
2019-05-23T04:13:41.272Z,98100.28
2019-05-23T04:16:11.876Z,98101.02
2019-05-23T04:18:41.452Z,98100.85
2019-05-23T04:21:11.092Z,98102.02
2019-05-23T04:23:43.891Z,98096.55
2019-05-23T04:26:13.788Z,98108.05
2019-05-23T04:28:43.285Z,98116.13
2019-05-23T04:31:14.588Z,98118.45
2019-05-23T04:33:44.204Z,98120.48
2019-05-23T04:36:15.300Z,98125.39
2019-05-23T04:38:46.012Z,98122.95
2019-05-23T04:41:19.572Z,98121.86
2019-05-23T04:43:50.667Z,98117.42
2019-05-23T04:46:21.318Z,98122.19
2019-05-23T04:48:52.964Z,98134.24
2019-05-23T04:51:27.755Z,98123.33
2019-05-23T04:53:58.910Z,98128.26
2019-05-23T04:56:29.364Z,98124.70
2019-05-23T04:58:59.095Z,98120.53
2019-05-23T05:01:32.821Z,98126.67
2019-05-23T05:04:04.478Z,98124.73
2019-05-23T05:06:36.574Z,98127.52
2019-05-23T05:09:10.420Z,98125.13
2019-05-23T05:11:41.344Z,98129.62
2019-05-23T05:14:11.962Z,98130.32
2019-05-23T05:16:42.745Z,98133.31
2019-05-23T05:19:13.313Z,98136.89
2019-05-23T05:21:44.018Z,98131.64
2019-05-23T05:24:14.513Z,98139.47
2019-05-23T05:26:45.160Z,98143.04
2019-05-23T05:29:15.848Z,98147.34
2019-05-23T05:31:45.940Z,98148.08
2019-05-23T05:34:20.503Z,98149.45
2019-05-23T05:36:51.449Z,98144.43
2019-05-23T05:39:21.228Z,98149.70
2019-05-23T05:41:52.504Z,98152.22
2019-05-23T05:44:21.246Z,98152.39
2019-05-23T05:46:51.215Z,98166.20
2019-05-23T05:49:20.902Z,98155.00
2019-05-23T05:51:53.064Z,98157.86
2019-05-23T05:54:23.913Z,98162.56
2019-05-23T05:56:54.720Z,98157.41
2019-05-23T05:59:25.170Z,98149.08
2019-05-23T06:01:55.190Z,98136.85
2019-05-23T06:04:26.894Z,98138.77
2019-05-23T06:06:58.302Z,98134.63
2019-05-23T06:09:30.693Z,98132.53
2019-05-23T06:12:00.517Z,98132.13
2019-05-23T06:14:31.004Z,98132.39
2019-05-23T06:17:03.159Z,98128.52
2019-05-23T06:19:33.670Z,98132.98
2019-05-23T06:22:04.720Z,98126.92
2019-05-23T06:24:46.906Z,98127.13
2019-05-23T06:27:11.572Z,98124.64
2019-05-23T06:29:42.500Z,98122.38
2019-05-23T06:32:17.500Z,98120.88
2019-05-23T06:34:49.777Z,98119.42
2019-05-23T06:37:20.402Z,98111.35
2019-05-23T06:39:51.151Z,98120.86
2019-05-23T06:42:22.064Z,98120.47
2019-05-23T06:44:52.991Z,98113.58
2019-05-23T06:47:25.202Z,98112.38
2019-05-23T06:49:54.834Z,98113.23
2019-05-23T06:52:24.515Z,98114.23
2019-05-23T06:54:53.987Z,98112.40
2019-05-23T06:57:26.120Z,98111.83
2019-05-23T06:59:56.949Z,98110.59
2019-05-23T07:02:31.941Z,98105.81
2019-05-23T07:05:01.130Z,98108.95
2019-05-23T07:07:33.141Z,98110.20
2019-05-23T07:10:04.243Z,98106.74
2019-05-23T07:12:35.167Z,98106.88
2019-05-23T07:15:08.816Z,98112.41
2019-05-23T07:17:39.148Z,98101.58
2019-05-23T07:20:12.759Z,98094.70
2019-05-23T07:22:45.145Z,98091.39
2019-05-23T07:25:15.407Z,98087.27
2019-05-23T07:27:46.518Z,98086.42
2019-05-23T07:30:22.936Z,98091.08
2019-05-23T07:32:54.470Z,98087.50
2019-05-23T07:35:24.906Z,98077.80
2019-05-23T07:37:55.334Z,98084.74
2019-05-23T07:40:29.263Z,98082.45
2019-05-23T07:42:59.783Z,98077.84
2019-05-23T07:45:39.994Z,98074.95
2019-05-23T07:48:12.916Z,98078.55
2019-05-23T07:50:42.494Z,98080.17
2019-05-23T07:53:14.991Z,98077.38
2019-05-23T07:55:46.062Z,98068.78
2019-05-23T07:58:17.302Z,98062.88
2019-05-23T08:00:58.476Z,98058.47
2019-05-23T08:03:31.791Z,98062.50
2019-05-23T08:06:03.627Z,98061.59
2019-05-23T08:08:37.526Z,98058.21
2019-05-23T08:11:11.847Z,98057.68
2019-05-23T08:13:42.076Z,98056.63
2019-05-23T08:16:11.914Z,98056.64
2019-05-23T08:18:44.724Z,98060.70
2019-05-23T08:21:16.650Z,98059.44
2019-05-23T08:23:49.397Z,98056.45
2019-05-23T08:26:22.068Z,98057.69
2019-05-23T08:29:23.679Z,98045.73
2019-05-23T08:31:26.057Z,98046.20
2019-05-23T08:33:58.276Z,98039.00
2019-05-23T08:36:28.883Z,98031.89
2019-05-23T08:39:01.201Z,98028.38
2019-05-23T08:41:33.741Z,98038.73
2019-05-23T08:44:04.697Z,98037.70
2019-05-23T08:46:37.073Z,98030.45
2019-05-23T08:49:08.243Z,98026.45
2019-05-23T08:51:39.320Z,98030.14
2019-05-23T08:54:10.774Z,98024.06
2019-05-23T08:56:42.675Z,98023.98
2019-05-23T08:59:13.781Z,98020.13
2019-05-23T09:01:44.509Z,98014.89
2019-05-23T09:04:17.404Z,98015.88
2019-05-23T09:06:49.458Z,98014.63
2019-05-23T09:09:29.602Z,98010.16
2019-05-23T09:11:52.609Z,98006.08
2019-05-23T09:14:23.800Z,98016.27
2019-05-23T09:16:54.928Z,98014.56
2019-05-23T09:19:27.258Z,98017.16
2019-05-23T09:21:58.211Z,98017.78
2019-05-23T09:24:27.228Z,98012.50
2019-05-23T09:26:56.598Z,98013.39
2019-05-23T09:29:26.428Z,98011.33
2019-05-23T09:31:56.102Z,98010.06
2019-05-23T09:34:30.103Z,98006.20
2019-05-23T09:37:00.900Z,98006.25
2019-05-23T09:39:32.814Z,98003.92
2019-05-23T09:42:04.177Z,98007.56
2019-05-23T09:44:33.513Z,98003.44
2019-05-23T09:47:03.724Z,98003.09
2019-05-23T09:49:34.209Z,97997.61
2019-05-23T09:52:08.310Z,97994.73
2019-05-23T09:54:38.098Z,97994.12
2019-05-23T09:57:07.983Z,97994.51
2019-05-23T09:59:40.208Z,97989.84
2019-05-23T10:02:10.937Z,97981.28
2019-05-23T10:04:42.233Z,97984.26
2019-05-23T10:07:11.648Z,97983.95
2019-05-23T10:09:41.359Z,97982.34
2019-05-23T10:12:12.037Z,97986.59
2019-05-23T10:14:41.722Z,97984.28
2019-05-23T10:17:12.220Z,97986.41
2019-05-23T10:19:42.000Z,97988.67
2019-05-23T10:22:12.531Z,97983.76
2019-05-23T10:24:43.023Z,97986.03
2019-05-23T10:27:15.113Z,97983.74
2019-05-23T10:29:45.610Z,97983.21
2019-05-23T10:32:16.344Z,97984.50
2019-05-23T10:34:48.615Z,97981.86
2019-05-23T10:37:20.514Z,97974.98
2019-05-23T10:39:56.847Z,97974.03
2019-05-23T10:42:27.764Z,97967.05
2019-05-23T10:44:58.591Z,97964.33
2019-05-23T10:47:31.403Z,97960.38
2019-05-23T10:50:07.671Z,97962.50
2019-05-23T10:52:35.347Z,97951.20
2019-05-23T10:55:05.969Z,97955.44
2019-05-23T10:57:35.639Z,97954.14
2019-05-23T11:00:11.591Z,97952.53
2019-05-23T11:02:42.678Z,97945.65
2019-05-23T11:05:14.452Z,97948.92
2019-05-23T11:07:44.148Z,97942.87
2019-05-23T11:10:16.450Z,97946.37
2019-05-23T11:12:47.917Z,97942.18
2019-05-23T11:15:18.479Z,97945.98
2019-05-23T11:17:53.014Z,97938.52
2019-05-23T11:20:21.437Z,97932.93
2019-05-23T11:22:53.472Z,97933.37
2019-05-23T11:25:24.726Z,97929.27
2019-05-23T11:27:55.128Z,97930.38
2019-05-23T11:30:31.167Z,97925.57
2019-05-23T11:33:01.261Z,97929.95
2019-05-23T11:35:31.348Z,97931.32
2019-05-23T11:38:00.724Z,97930.13
2019-05-23T11:40:33.871Z,97934.67
2019-05-23T11:43:04.291Z,97931.88
2019-05-23T11:45:35.747Z,97922.61
2019-05-23T11:48:07.061Z,97923.39
2019-05-23T11:50:36.712Z,97918.91
2019-05-23T11:53:08.496Z,97921.97
2019-05-23T11:55:38.115Z,97917.75
2019-05-23T11:58:10.230Z,97911.28
2019-05-23T12:01:00.420Z,97905.73
2019-05-23T12:03:30.985Z,97900.59
2019-05-23T12:06:05.321Z,97904.69
2019-05-23T12:08:31.738Z,97907.02
2019-05-23T12:11:02.201Z,97897.13
2019-05-23T12:13:32.818Z,97902.47
2019-05-23T12:16:04.487Z,97893.11
2019-05-23T12:18:36.447Z,97893.55
2019-05-23T12:21:07.171Z,97899.74
2019-05-23T12:23:36.537Z,97892.53
2019-05-23T12:26:06.038Z,97885.50
2019-05-23T12:28:36.716Z,97876.69
2019-05-23T12:31:07.222Z,97872.55
2019-05-23T12:33:36.619Z,97879.63
2019-05-23T12:36:07.284Z,97867.83
2019-05-23T12:38:39.187Z,97864.67
2019-05-23T12:41:11.348Z,97864.80
2019-05-23T12:43:41.767Z,97868.89
2019-05-23T12:46:12.166Z,97867.84
2019-05-23T12:48:50.190Z,97865.64
2019-05-23T12:51:37.779Z,97864.29
2019-05-23T12:54:08.473Z,97868.72
2019-05-23T12:56:40.101Z,97869.43
2019-05-23T12:59:11.299Z,97860.42
2019-05-23T13:01:43.840Z,97860.41
2019-05-23T13:04:16.461Z,97855.62
2019-05-23T13:06:46.552Z,97847.12
2019-05-23T13:09:17.146Z,97850.23
2019-05-23T13:11:47.655Z,97847.12
2019-05-23T13:14:17.166Z,97852.98
2019-05-23T13:16:47.734Z,97846.55
2019-05-23T13:19:18.559Z,97846.39
2019-05-23T13:21:50.610Z,97840.44
2019-05-23T13:24:21.079Z,97836.75
2019-05-23T13:26:52.976Z,97836.39
2019-05-23T13:29:24.730Z,97837.05
2019-05-23T13:31:55.514Z,97842.73
2019-05-23T13:34:26.220Z,97837.43
2019-05-23T13:36:55.082Z,97833.65
2019-05-23T13:39:25.083Z,97830.20
2019-05-23T13:41:53.599Z,97830.20
2019-05-23T13:44:33.987Z,97834.30
2019-05-23T13:46:53.019Z,97830.08
2019-05-23T13:49:22.512Z,97832.30
2019-05-23T13:51:52.889Z,97826.02
2019-05-23T13:54:24.123Z,97828.07
2019-05-23T13:56:57.256Z,97828.56
2019-05-23T13:59:27.658Z,97831.34
2019-05-23T14:01:59.858Z,97831.23
2019-05-23T14:04:28.969Z,97825.27
2019-05-23T14:07:01.622Z,97821.71
2019-05-23T14:09:32.986Z,97816.06
2019-05-23T14:14:35.946Z,97810.80
2019-05-23T14:17:15.849Z,97815.76
2019-05-23T14:19:48.362Z,97814.13
2019-05-23T14:22:19.273Z,97810.59
2019-05-23T14:24:52.292Z,97814.06
2019-05-23T14:27:36.796Z,97811.07
2019-05-23T14:30:29.452Z,97808.91
2019-05-23T14:33:17.429Z,97808.36
2019-05-23T14:35:51.688Z,97797.84
2019-05-23T14:38:30.731Z,97802.70
2019-05-23T14:40:54.992Z,97798.52
2019-05-23T14:43:29.051Z,97797.36
2019-05-23T14:46:01.243Z,97798.58
2019-05-23T14:48:41.424Z,97790.75
2019-05-23T14:51:29.947Z,97786.94
2019-05-23T14:54:17.052Z,97790.16
2019-05-23T14:56:47.988Z,97785.02
2019-05-23T14:59:17.807Z,97786.02
2019-05-23T15:01:48.592Z,97788.58
2019-05-23T15:04:18.105Z,97788.58
2019-05-23T15:06:49.309Z,97785.77
2019-05-23T15:09:21.944Z,97784.96
2019-05-23T15:11:52.953Z,97781.91
2019-05-23T15:14:23.636Z,97782.14
2019-05-23T15:16:54.157Z,97787.49
2019-05-23T15:19:39.072Z,97786.05
2019-05-23T15:21:56.166Z,97782.68
2019-05-23T15:24:26.842Z,97784.19
2019-05-23T15:26:57.347Z,97786.12
2019-05-23T15:29:29.382Z,97788.30
2019-05-23T15:32:02.792Z,97777.53
2019-05-23T15:34:34.668Z,97781.42
2019-05-23T15:37:03.454Z,97777.67
2019-05-23T15:39:33.961Z,97775.67
2019-05-23T15:42:04.585Z,97769.47
2019-05-23T15:44:35.421Z,97767.34
2019-05-23T15:47:05.906Z,97763.67
2019-05-23T15:49:36.684Z,97765.77
2019-05-23T15:52:11.537Z,97758.56
2019-05-23T15:54:43.913Z,97760.23
2019-05-23T15:57:15.064Z,97756.57
2019-05-23T15:59:47.056Z,97757.69
2019-05-23T16:02:18.512Z,97749.09
2019-05-23T16:04:49.206Z,97755.39
2019-05-23T16:07:18.564Z,97758.58
2019-05-23T16:09:48.095Z,97752.23
2019-05-23T16:12:17.789Z,97758.78
2019-05-23T16:14:47.380Z,97750.62
2019-05-23T16:17:17.258Z,97758.80
2019-05-23T16:19:49.960Z,97750.91
2019-05-23T16:22:22.655Z,97752.61
2019-05-23T16:24:53.260Z,97751.73
2019-05-23T16:27:22.797Z,97749.80
2019-05-23T16:29:52.648Z,97751.80
2019-05-23T16:32:25.329Z,97744.80
2019-05-23T16:34:55.831Z,97750.66
2019-05-23T16:37:25.451Z,97743.89
2019-05-23T16:39:53.944Z,97742.91
2019-05-23T16:42:22.530Z,97751.28
2019-05-23T16:44:51.884Z,97747.67
2019-05-23T16:47:25.248Z,97745.29
2019-05-23T16:49:57.879Z,97745.70
2019-05-23T16:52:30.771Z,97743.19
2019-05-23T16:55:01.778Z,97728.64
2019-05-23T16:57:36.380Z,97727.13
2019-05-23T17:00:27.172Z,97718.08
2019-05-23T17:02:58.328Z,97748.62
2019-05-23T17:05:34.226Z,97718.85
2019-05-23T17:08:21.346Z,97718.85
2019-05-23T17:10:55.300Z,97743.19
2019-05-23T17:13:30.511Z,97716.59
2019-05-23T17:16:05.512Z,97716.59
2019-05-23T17:18:40.106Z,97739.02
2019-05-23T17:21:11.024Z,97741.28
2019-05-23T17:23:48.746Z,97736.50
2019-05-23T17:26:22.513Z,97742.38
2019-05-23T17:28:57.498Z,97745.16
2019-05-23T17:31:28.162Z,97739.58
2019-05-23T17:33:58.740Z,97738.03
2019-05-23T17:36:29.338Z,97745.26
2019-05-23T17:38:58.749Z,97745.72
2019-05-23T17:41:29.834Z,97751.50
2019-05-23T17:46:47.719Z,97744.37
2019-05-23T17:49:18.488Z,97740.19
2019-05-23T17:51:48.900Z,97735.63
2019-05-23T17:54:19.825Z,97735.07
2019-05-23T17:56:49.300Z,97736.91
2019-05-23T17:59:19.800Z,97733.33
2019-05-23T18:01:50.576Z,97732.53
2019-05-23T18:04:20.106Z,97734.38
2019-05-23T18:06:50.495Z,97729.95
2019-05-23T18:09:22.099Z,97731.97
2019-05-23T18:11:55.551Z,97733.61
2019-05-23T18:14:26.101Z,97737.61
2019-05-23T18:16:55.713Z,97734.84
2019-05-23T18:19:26.396Z,97732.45
2019-05-23T18:21:59.827Z,97733.05
2019-05-23T18:24:34.196Z,97735.45
2019-05-23T18:27:05.855Z,97732.07
2019-05-23T18:29:36.801Z,97741.23
2019-05-23T18:32:12.623Z,97745.22
2019-05-23T18:34:42.703Z,97744.59
2019-05-23T18:37:12.856Z,97747.38
2019-05-23T18:39:45.622Z,97748.59
2019-05-23T18:42:16.649Z,97749.34
2019-05-23T18:44:47.485Z,97754.69
2019-05-23T18:47:22.270Z,97757.47
2019-05-23T18:49:52.052Z,97760.45
2019-05-23T18:52:24.027Z,97758.63
2019-05-23T18:54:53.402Z,97764.95
2019-05-23T18:57:23.049Z,97761.27
2019-05-23T18:59:52.731Z,97756.23
2019-05-23T19:02:22.353Z,97762.58
2019-05-23T19:04:52.656Z,97758.13
2019-05-23T19:07:22.311Z,97768.27
2019-05-23T19:09:52.880Z,97767.44
2019-05-23T19:12:23.496Z,97768.20
2019-05-23T19:14:53.911Z,97771.31
2019-05-23T19:17:25.964Z,97772.08
2019-05-23T19:19:57.847Z,97778.61
2019-05-23T19:22:29.405Z,97783.16
2019-05-23T19:25:02.318Z,97782.09
2019-05-23T19:27:32.345Z,97781.29
2019-05-23T19:30:04.912Z,97783.41
2019-05-23T19:32:35.514Z,97782.56
2019-05-23T19:35:05.652Z,97788.31
2019-05-23T19:37:34.551Z,97781.64
2019-05-23T19:40:08.843Z,97786.02
2019-05-23T19:42:40.528Z,97786.54
2019-05-23T19:45:12.505Z,97782.30
2019-05-23T19:47:45.560Z,97780.65
2019-05-23T19:50:15.167Z,97786.38
2019-05-23T19:52:45.769Z,97784.69
2019-05-23T19:55:14.596Z,97787.62
2019-05-23T19:57:44.211Z,97785.16
2019-05-23T20:00:19.521Z,97783.89
2019-05-23T20:02:53.243Z,97790.16
2019-05-23T20:05:39.929Z,97789.93
2019-05-23T20:08:10.532Z,97791.67
2019-05-23T20:10:40.585Z,97793.59
2019-05-23T20:13:11.492Z,97791.43
2019-05-23T20:15:45.640Z,97783.78
2019-05-23T20:18:13.353Z,97781.54
2019-05-23T20:20:42.695Z,97784.66
2019-05-23T20:23:15.865Z,97785.81
2019-05-23T20:25:47.351Z,97789.28
2019-05-23T20:28:17.353Z,97788.00
2019-05-23T20:30:52.467Z,97790.89
2019-05-23T20:33:24.830Z,97789.18
2019-05-23T20:35:55.909Z,97789.52
2019-05-23T20:38:26.013Z,97784.92
2019-05-23T20:40:55.851Z,97785.25
2019-05-23T20:43:26.572Z,97783.33
2019-05-23T20:45:57.177Z,97787.22
2019-05-23T20:48:27.704Z,97784.97
2019-05-23T20:50:58.302Z,97781.03
2019-05-23T20:53:29.121Z,97779.88
2019-05-23T20:55:59.430Z,97777.67
2019-05-23T20:58:32.650Z,97778.00
2019-05-23T21:01:16.420Z,97779.33
2019-05-23T21:03:46.045Z,97777.80
2019-05-23T21:06:15.200Z,97775.09
2019-05-23T21:08:45.664Z,97772.41
2019-05-23T21:11:16.070Z,97770.73
2019-05-23T21:13:48.242Z,97768.34
2019-05-23T21:16:17.960Z,97775.45
2019-05-23T21:18:49.831Z,97779.58
2019-05-23T21:21:20.717Z,97777.77
2019-05-23T21:23:50.361Z,97778.57
2019-05-23T21:26:20.895Z,97774.46
2019-05-23T21:28:52.628Z,97776.42
2019-05-23T21:31:23.182Z,97780.84
2019-05-23T21:33:52.557Z,97780.98
2019-05-23T21:36:21.798Z,97780.92
2019-05-23T21:38:52.301Z,97784.27
2019-05-23T21:41:21.874Z,97780.05
2019-05-23T21:43:53.112Z,97790.50
2019-05-23T21:46:22.604Z,97791.75
2019-05-23T21:48:53.187Z,97788.55
2019-05-23T21:51:25.139Z,97788.68
2019-05-23T21:53:54.743Z,97791.45
2019-05-23T21:56:27.121Z,97790.20
2019-05-23T21:58:57.528Z,97792.48
2019-05-23T22:01:30.393Z,97789.44
2019-05-23T22:04:07.789Z,97790.69
2019-05-23T22:06:40.030Z,97788.42
2019-05-23T22:09:12.107Z,97786.97
2019-05-23T22:11:42.614Z,97801.20
2019-05-23T22:14:12.118Z,97793.02
2019-05-23T22:16:44.910Z,97793.97
2019-05-23T22:19:16.078Z,97793.16
2019-05-23T22:21:45.932Z,97794.11
2019-05-23T22:24:15.785Z,97794.98
2019-05-23T22:26:46.403Z,97792.82
2019-05-23T22:29:16.821Z,97792.74
2019-05-23T22:31:47.226Z,97788.13
2019-05-23T22:34:35.506Z,97788.64
2019-05-23T22:37:07.553Z,97787.03
2019-05-23T22:39:36.823Z,97776.69
2019-05-23T22:42:08.758Z,97780.78
2019-05-23T22:44:38.291Z,97775.58
2019-05-23T22:47:10.535Z,97776.24
2019-05-23T22:49:42.612Z,97777.92
2019-05-23T22:52:12.133Z,97781.06
2019-05-23T22:54:41.577Z,97774.84
2019-05-23T22:57:13.650Z,97776.15
2019-05-23T22:59:43.096Z,97773.95
2019-05-23T23:02:15.298Z,97773.51
2019-05-23T23:04:45.669Z,97774.82
2019-05-23T23:07:17.651Z,97777.48
2019-05-23T23:09:47.051Z,97772.55
2019-05-23T23:12:17.523Z,97763.80
2019-05-23T23:14:49.673Z,97761.16
2019-05-23T23:17:20.149Z,97761.72
2019-05-23T23:19:50.617Z,97769.83
2019-05-23T23:22:21.238Z,97764.42
2019-05-23T23:24:51.536Z,97764.34
2019-05-23T23:27:21.047Z,97761.66
2019-05-23T23:29:50.755Z,97762.22
2019-05-23T23:32:21.535Z,97761.05
2019-05-23T23:34:54.089Z,97760.31
2019-05-23T23:37:23.564Z,97759.87
2019-05-23T23:39:56.050Z,97762.41
2019-05-23T23:42:30.321Z,97765.45
2019-05-23T23:45:18.383Z,97763.42
2019-05-23T23:48:06.654Z,97763.25
2019-05-23T23:50:54.969Z,97772.98
2019-05-23T23:53:43.416Z,97769.56
2019-05-23T23:56:31.981Z,97768.09
2019-05-23T23:59:03.570Z,97760.48
